Terminal Aerodrome Forecast
Issued by NWS Cleveland, OH

Home | Current Version | Previous Version | Graphics & Text | Print | Product List | Glossary On
Versions: 1 2 3 4 5 6 7 8 9 10 11 12 13 14 15 16
000
FTUS41 KCLE 180401 AAA
TAFYNG
TAF AMD
KYNG 180401Z 1804/1824 VRB03KT 1 1/2SM -SN BR OVC004
     FM180600 25006KT 4SM -SN BR OVC015
     FM180800 26006KT P6SM OVC015
     FM181100 28006KT P6SM OVC007
     FM181600 24006KT P6SM BKN015
     FM182000 18007KT P6SM BKN250=

USA.gov is the U.S. government's official web portal to all federal, state and local government web resources and services.